sensor_id;sensor_type;location;lat;lon;timestamp;P1;durP1;ratioP1;P2;durP2;ratioP2
78053;SDS011;67726;45.636;11.752;2024-03-06T00:02:00;8.07;;;3.45;;
78053;SDS011;67726;45.636;11.752;2024-03-06T00:04:26;7.57;;;3.83;;
78053;SDS011;67726;45.636;11.752;2024-03-06T00:06:52;10.00;;;4.00;;
78053;SDS011;67726;45.636;11.752;2024-03-06T00:09:19;7.30;;;3.72;;
78053;SDS011;67726;45.636;11.752;2024-03-06T00:11:44;9.73;;;4.30;;
78053;SDS011;67726;45.636;11.752;2024-03-06T00:14:10;10.70;;;4.55;;
78053;SDS011;67726;45.636;11.752;2024-03-06T00:16:37;10.23;;;3.75;;
78053;SDS011;67726;45.636;11.752;2024-03-06T00:19:03;9.70;;;4.47;;
78053;SDS011;67726;45.636;11.752;2024-03-06T00:21:29;12.20;;;4.10;;
78053;SDS011;67726;45.636;11.752;2024-03-06T00:23:55;8.73;;;4.30;;
78053;SDS011;67726;45.636;11.752;2024-03-06T00:26:21;11.75;;;4.60;;
78053;SDS011;67726;45.636;11.752;2024-03-06T00:28:46;9.05;;;4.38;;
78053;SDS011;67726;45.636;11.752;2024-03-06T00:31:12;13.10;;;4.83;;
78053;SDS011;67726;45.636;11.752;2024-03-06T00:33:38;8.65;;;4.47;;
78053;SDS011;67726;45.636;11.752;2024-03-06T00:36:05;12.15;;;4.28;;
78053;SDS011;67726;45.636;11.752;2024-03-06T00:38:31;11.93;;;4.27;;
78053;SDS011;67726;45.636;11.752;2024-03-06T00:40:57;10.80;;;4.55;;
78053;SDS011;67726;45.636;11.752;2024-03-06T00:43:23;9.27;;;4.72;;
78053;SDS011;67726;45.636;11.752;2024-03-06T00:45:48;11.60;;;4.13;;
78053;SDS011;67726;45.636;11.752;2024-03-06T00:48:14;9.30;;;4.38;;
78053;SDS011;67726;45.636;11.752;2024-03-06T00:50:40;9.43;;;3.67;;
78053;SDS011;67726;45.636;11.752;2024-03-06T00:53:06;10.75;;;3.72;;
78053;SDS011;67726;45.636;11.752;2024-03-06T00:55:32;11.23;;;4.23;;
78053;SDS011;67726;45.636;11.752;2024-03-06T00:57:57;10.40;;;4.22;;
78053;SDS011;67726;45.636;11.752;2024-03-06T01:00:23;6.73;;;3.20;;
78053;SDS011;67726;45.636;11.752;2024-03-06T01:02:49;10.52;;;3.17;;
78053;SDS011;67726;45.636;11.752;2024-03-06T01:05:14;10.33;;;3.57;;
78053;SDS011;67726;45.636;11.752;2024-03-06T01:07:40;7.57;;;3.05;;
78053;SDS011;67726;45.636;11.752;2024-03-06T01:10:06;8.88;;;3.15;;
78053;SDS011;67726;45.636;11.752;2024-03-06T01:12:34;9.17;;;2.70;;
78053;SDS011;67726;45.636;11.752;2024-03-06T01:15:00;8.85;;;2.95;;
78053;SDS011;67726;45.636;11.752;2024-03-06T01:17:25;6.80;;;2.83;;
78053;SDS011;67726;45.636;11.752;2024-03-06T01:19:51;9.77;;;3.70;;
78053;SDS011;67726;45.636;11.752;2024-03-06T01:22:17;8.70;;;3.40;;
78053;SDS011;67726;45.636;11.752;2024-03-06T01:24:43;12.50;;;3.97;;
78053;SDS011;67726;45.636;11.752;2024-03-06T01:27:09;8.63;;;2.80;;
78053;SDS011;67726;45.636;11.752;2024-03-06T01:29:35;9.80;;;2.75;;
78053;SDS011;67726;45.636;11.752;2024-03-06T01:32:01;12.23;;;2.93;;
78053;SDS011;67726;45.636;11.752;2024-03-06T01:34:27;8.93;;;2.50;;
78053;SDS011;67726;45.636;11.752;2024-03-06T01:36:52;7.05;;;2.88;;
78053;SDS011;67726;45.636;11.752;2024-03-06T01:39:18;7.07;;;2.90;;
78053;SDS011;67726;45.636;11.752;2024-03-06T01:41:48;11.63;;;3.15;;
78053;SDS011;67726;45.636;11.752;2024-03-06T01:44:16;8.80;;;2.70;;
78053;SDS011;67726;45.636;11.752;2024-03-06T01:46:42;9.07;;;2.80;;
78053;SDS011;67726;45.636;11.752;2024-03-06T01:49:15;11.25;;;3.10;;
78053;SDS011;67726;45.636;11.752;2024-03-06T01:51:41;8.13;;;2.80;;
78053;SDS011;67726;45.636;11.752;2024-03-06T01:54:10;7.60;;;3.05;;
78053;SDS011;67726;45.636;11.752;2024-03-06T01:56:36;11.82;;;3.78;;
78053;SDS011;67726;45.636;11.752;2024-03-06T01:59:08;8.10;;;3.30;;
78053;SDS011;67726;45.636;11.752;2024-03-06T02:01:34;9.13;;;3.20;;
78053;SDS011;67726;45.636;11.752;2024-03-06T02:04:00;8.03;;;2.90;;
78053;SDS011;67726;45.636;11.752;2024-03-06T02:06:26;8.80;;;3.45;;
78053;SDS011;67726;45.636;11.752;2024-03-06T02:08:52;8.75;;;3.30;;
78053;SDS011;67726;45.636;11.752;2024-03-06T02:11:17;8.83;;;3.20;;
78053;SDS011;67726;45.636;11.752;2024-03-06T02:13:43;7.32;;;2.75;;
78053;SDS011;67726;45.636;11.752;2024-03-06T02:16:09;10.83;;;3.57;;
78053;SDS011;67726;45.636;11.752;2024-03-06T02:18:35;11.70;;;3.60;;
78053;SDS011;67726;45.636;11.752;2024-03-06T02:21:02;12.60;;;3.72;;
78053;SDS011;67726;45.636;11.752;2024-03-06T02:23:29;12.93;;;3.85;;
78053;SDS011;67726;45.636;11.752;2024-03-06T02:25:55;8.23;;;3.80;;
78053;SDS011;67726;45.636;11.752;2024-03-06T02:28:21;9.50;;;3.75;;
78053;SDS011;67726;45.636;11.752;2024-03-06T02:30:50;7.88;;;3.50;;
78053;SDS011;67726;45.636;11.752;2024-03-06T02:33:16;7.28;;;3.17;;
78053;SDS011;67726;45.636;11.752;2024-03-06T02:35:43;10.27;;;3.53;;
78053;SDS011;67726;45.636;11.752;2024-03-06T02:38:10;11.13;;;3.60;;
78053;SDS011;67726;45.636;11.752;2024-03-06T02:40:35;9.45;;;3.30;;
78053;SDS011;67726;45.636;11.752;2024-03-06T02:43:01;12.17;;;3.80;;
78053;SDS011;67726;45.636;11.752;2024-03-06T02:45:27;8.55;;;3.38;;
78053;SDS011;67726;45.636;11.752;2024-03-06T02:47:53;9.77;;;3.23;;
78053;SDS011;67726;45.636;11.752;2024-03-06T02:50:19;11.52;;;3.97;;
78053;SDS011;67726;45.636;11.752;2024-03-06T02:52:46;11.32;;;3.70;;
78053;SDS011;67726;45.636;11.752;2024-03-06T02:55:11;11.80;;;3.57;;
78053;SDS011;67726;45.636;11.752;2024-03-06T02:57:37;12.25;;;3.72;;
78053;SDS011;67726;45.636;11.752;2024-03-06T03:00:03;9.43;;;3.70;;
78053;SDS011;67726;45.636;11.752;2024-03-06T03:02:29;11.07;;;4.13;;
78053;SDS011;67726;45.636;11.752;2024-03-06T03:04:56;11.88;;;4.00;;
78053;SDS011;67726;45.636;11.752;2024-03-06T03:07:22;10.27;;;3.92;;
78053;SDS011;67726;45.636;11.752;2024-03-06T03:09:48;10.63;;;4.00;;
78053;SDS011;67726;45.636;11.752;2024-03-06T03:12:14;11.52;;;3.88;;
78053;SDS011;67726;45.636;11.752;2024-03-06T03:14:40;14.53;;;3.90;;
78053;SDS011;67726;45.636;11.752;2024-03-06T03:17:06;10.68;;;4.15;;
78053;SDS011;67726;45.636;11.752;2024-03-06T03:19:32;14.77;;;4.97;;
78053;SDS011;67726;45.636;11.752;2024-03-06T03:21:57;10.63;;;4.53;;
78053;SDS011;67726;45.636;11.752;2024-03-06T03:24:24;12.52;;;4.43;;
78053;SDS011;67726;45.636;11.752;2024-03-06T03:26:53;8.20;;;3.90;;
78053;SDS011;67726;45.636;11.752;2024-03-06T03:29:18;12.43;;;4.23;;
78053;SDS011;67726;45.636;11.752;2024-03-06T03:31:44;8.95;;;4.15;;
78053;SDS011;67726;45.636;11.752;2024-03-06T03:34:09;9.37;;;4.37;;
78053;SDS011;67726;45.636;11.752;2024-03-06T03:36:39;13.77;;;4.70;;
78053;SDS011;67726;45.636;11.752;2024-03-06T03:39:06;11.32;;;4.30;;
78053;SDS011;67726;45.636;11.752;2024-03-06T03:41:38;12.27;;;4.20;;
78053;SDS011;67726;45.636;11.752;2024-03-06T03:44:07;11.75;;;4.63;;
78053;SDS011;67726;45.636;11.752;2024-03-06T03:46:33;9.40;;;4.30;;
78053;SDS011;67726;45.636;11.752;2024-03-06T03:48:58;9.00;;;3.73;;
78053;SDS011;67726;45.636;11.752;2024-03-06T03:51:24;8.93;;;3.80;;
78053;SDS011;67726;45.636;11.752;2024-03-06T03:53:49;10.85;;;4.13;;
78053;SDS011;67726;45.636;11.752;2024-03-06T03:56:18;8.40;;;4.28;;
78053;SDS011;67726;45.636;11.752;2024-03-06T03:58:43;11.87;;;4.23;;
78053;SDS011;67726;45.636;11.752;2024-03-06T04:01:10;13.82;;;4.00;;
78053;SDS011;67726;45.636;11.752;2024-03-06T04:03:36;10.83;;;4.00;;
78053;SDS011;67726;45.636;11.752;2024-03-06T04:06:02;12.82;;;4.53;;
78053;SDS011;67726;45.636;11.752;2024-03-06T04:08:27;13.37;;;5.07;;
78053;SDS011;67726;45.636;11.752;2024-03-06T04:10:53;8.68;;;4.10;;
78053;SDS011;67726;45.636;11.752;2024-03-06T04:13:19;10.70;;;4.47;;
78053;SDS011;67726;45.636;11.752;2024-03-06T04:15:45;7.68;;;4.03;;
78053;SDS011;67726;45.636;11.752;2024-03-06T04:18:11;10.07;;;3.72;;
78053;SDS011;67726;45.636;11.752;2024-03-06T04:20:37;10.57;;;5.03;;
78053;SDS011;67726;45.636;11.752;2024-03-06T04:23:03;8.27;;;4.17;;
78053;SDS011;67726;45.636;11.752;2024-03-06T04:25:28;13.05;;;4.18;;
78053;SDS011;67726;45.636;11.752;2024-03-06T04:27:54;8.33;;;4.47;;
78053;SDS011;67726;45.636;11.752;2024-03-06T04:30:20;10.30;;;4.70;;
78053;SDS011;67726;45.636;11.752;2024-03-06T04:32:46;9.55;;;4.90;;
78053;SDS011;67726;45.636;11.752;2024-03-06T04:35:12;14.20;;;4.60;;
78053;SDS011;67726;45.636;11.752;2024-03-06T04:37:37;10.37;;;5.07;;
78053;SDS011;67726;45.636;11.752;2024-03-06T04:40:04;10.77;;;4.70;;
78053;SDS011;67726;45.636;11.752;2024-03-06T04:42:34;9.77;;;4.68;;
78053;SDS011;67726;45.636;11.752;2024-03-06T04:45:03;13.65;;;5.00;;
78053;SDS011;67726;45.636;11.752;2024-03-06T04:47:30;11.35;;;5.20;;
78053;SDS011;67726;45.636;11.752;2024-03-06T04:49:56;11.18;;;4.80;;
78053;SDS011;67726;45.636;11.752;2024-03-06T04:52:22;16.23;;;5.80;;
78053;SDS011;67726;45.636;11.752;2024-03-06T04:54:48;14.93;;;5.78;;
78053;SDS011;67726;45.636;11.752;2024-03-06T04:57:14;12.47;;;5.43;;
78053;SDS011;67726;45.636;11.752;2024-03-06T04:59:39;12.60;;;6.05;;
78053;SDS011;67726;45.636;11.752;2024-03-06T05:02:05;11.90;;;5.47;;
78053;SDS011;67726;45.636;11.752;2024-03-06T05:04:31;13.15;;;5.45;;
78053;SDS011;67726;45.636;11.752;2024-03-06T05:06:57;9.60;;;4.90;;
78053;SDS011;67726;45.636;11.752;2024-03-06T05:09:22;12.20;;;5.40;;
78053;SDS011;67726;45.636;11.752;2024-03-06T05:11:48;16.30;;;6.40;;
78053;SDS011;67726;45.636;11.752;2024-03-06T05:14:15;14.77;;;6.03;;
78053;SDS011;67726;45.636;11.752;2024-03-06T05:16:42;14.23;;;5.80;;
78053;SDS011;67726;45.636;11.752;2024-03-06T05:19:08;13.03;;;5.70;;
78053;SDS011;67726;45.636;11.752;2024-03-06T05:21:36;16.98;;;6.22;;
78053;SDS011;67726;45.636;11.752;2024-03-06T05:24:01;13.70;;;6.22;;
78053;SDS011;67726;45.636;11.752;2024-03-06T05:26:27;13.83;;;6.43;;
78053;SDS011;67726;45.636;11.752;2024-03-06T05:28:53;12.18;;;5.63;;
78053;SDS011;67726;45.636;11.752;2024-03-06T05:31:19;16.55;;;6.22;;
78053;SDS011;67726;45.636;11.752;2024-03-06T05:33:48;13.03;;;6.47;;
78053;SDS011;67726;45.636;11.752;2024-03-06T05:36:16;15.50;;;6.50;;
78053;SDS011;67726;45.636;11.752;2024-03-06T05:38:43;19.00;;;7.32;;
78053;SDS011;67726;45.636;11.752;2024-03-06T05:41:09;17.77;;;7.63;;
78053;SDS011;67726;45.636;11.752;2024-03-06T05:43:35;17.15;;;7.30;;
78053;SDS011;67726;45.636;11.752;2024-03-06T05:46:00;18.00;;;7.77;;
78053;SDS011;67726;45.636;11.752;2024-03-06T05:48:26;15.88;;;7.80;;
78053;SDS011;67726;45.636;11.752;2024-03-06T05:50:52;16.03;;;7.73;;
78053;SDS011;67726;45.636;11.752;2024-03-06T05:53:18;15.85;;;7.68;;
78053;SDS011;67726;45.636;11.752;2024-03-06T05:55:44;19.90;;;8.20;;
78053;SDS011;67726;45.636;11.752;2024-03-06T05:58:10;17.88;;;8.25;;
78053;SDS011;67726;45.636;11.752;2024-03-06T06:00:36;18.23;;;8.40;;
78053;SDS011;67726;45.636;11.752;2024-03-06T06:03:03;18.50;;;8.60;;
78053;SDS011;67726;45.636;11.752;2024-03-06T06:05:28;22.30;;;8.80;;
78053;SDS011;67726;45.636;11.752;2024-03-06T06:07:54;19.48;;;7.32;;
78053;SDS011;67726;45.636;11.752;2024-03-06T06:10:20;20.27;;;8.20;;
78053;SDS011;67726;45.636;11.752;2024-03-06T06:12:45;15.82;;;8.20;;
78053;SDS011;67726;45.636;11.752;2024-03-06T06:15:11;14.37;;;7.10;;
78053;SDS011;67726;45.636;11.752;2024-03-06T06:17:37;17.95;;;7.13;;
78053;SDS011;67726;45.636;11.752;2024-03-06T06:20:06;17.97;;;7.07;;
78053;SDS011;67726;45.636;11.752;2024-03-06T06:22:35;13.30;;;7.43;;
78053;SDS011;67726;45.636;11.752;2024-03-06T06:25:01;14.23;;;6.82;;
78053;SDS011;67726;45.636;11.752;2024-03-06T06:27:28;15.98;;;8.30;;
78053;SDS011;67726;45.636;11.752;2024-03-06T06:29:54;13.87;;;6.73;;
78053;SDS011;67726;45.636;11.752;2024-03-06T06:32:20;16.67;;;7.35;;
78053;SDS011;67726;45.636;11.752;2024-03-06T06:34:46;14.95;;;6.65;;
78053;SDS011;67726;45.636;11.752;2024-03-06T06:37:12;15.27;;;6.73;;
78053;SDS011;67726;45.636;11.752;2024-03-06T06:39:37;17.52;;;7.35;;
78053;SDS011;67726;45.636;11.752;2024-03-06T06:42:03;12.43;;;7.17;;
78053;SDS011;67726;45.636;11.752;2024-03-06T06:44:29;14.07;;;7.45;;
78053;SDS011;67726;45.636;11.752;2024-03-06T06:46:55;18.40;;;8.07;;
78053;SDS011;67726;45.636;11.752;2024-03-06T06:49:21;15.67;;;7.17;;
78053;SDS011;67726;45.636;11.752;2024-03-06T06:51:47;15.05;;;7.43;;
78053;SDS011;67726;45.636;11.752;2024-03-06T06:54:14;17.60;;;7.90;;
78053;SDS011;67726;45.636;11.752;2024-03-06T06:56:40;18.30;;;8.63;;
78053;SDS011;67726;45.636;11.752;2024-03-06T06:59:05;15.50;;;7.13;;
78053;SDS011;67726;45.636;11.752;2024-03-06T07:01:31;15.30;;;7.60;;
78053;SDS011;67726;45.636;11.752;2024-03-06T07:03:58;15.55;;;6.97;;
78053;SDS011;67726;45.636;11.752;2024-03-06T07:06:23;13.00;;;6.00;;
78053;SDS011;67726;45.636;11.752;2024-03-06T07:08:50;13.50;;;6.70;;
78053;SDS011;67726;45.636;11.752;2024-03-06T07:11:16;13.68;;;6.80;;
78053;SDS011;67726;45.636;11.752;2024-03-06T07:13:43;15.77;;;6.90;;
78053;SDS011;67726;45.636;11.752;2024-03-06T07:16:09;18.67;;;6.97;;
78053;SDS011;67726;45.636;11.752;2024-03-06T07:18:34;11.80;;;5.63;;
78053;SDS011;67726;45.636;11.752;2024-03-06T07:21:00;12.57;;;6.33;;
78053;SDS011;67726;45.636;11.752;2024-03-06T07:23:26;12.38;;;6.05;;
78053;SDS011;67726;45.636;11.752;2024-03-06T07:25:51;15.63;;;6.27;;
78053;SDS011;67726;45.636;11.752;2024-03-06T07:28:17;10.60;;;5.47;;
78053;SDS011;67726;45.636;11.752;2024-03-06T07:30:44;10.60;;;5.63;;
78053;SDS011;67726;45.636;11.752;2024-03-06T07:33:09;10.00;;;4.87;;
78053;SDS011;67726;45.636;11.752;2024-03-06T07:35:35;12.15;;;5.80;;
78053;SDS011;67726;45.636;11.752;2024-03-06T07:38:01;10.93;;;5.23;;
78053;SDS011;67726;45.636;11.752;2024-03-06T07:40:29;11.52;;;4.85;;
78053;SDS011;67726;45.636;11.752;2024-03-06T07:42:56;12.38;;;4.93;;
78053;SDS011;67726;45.636;11.752;2024-03-06T07:45:22;11.27;;;4.78;;
78053;SDS011;67726;45.636;11.752;2024-03-06T07:47:47;10.60;;;4.70;;
78053;SDS011;67726;45.636;11.752;2024-03-06T07:50:13;11.93;;;4.87;;
78053;SDS011;67726;45.636;11.752;2024-03-06T07:52:43;10.25;;;4.40;;
78053;SDS011;67726;45.636;11.752;2024-03-06T07:55:14;13.00;;;4.75;;
78053;SDS011;67726;45.636;11.752;2024-03-06T07:57:39;15.10;;;5.03;;
78053;SDS011;67726;45.636;11.752;2024-03-06T08:00:06;10.93;;;4.40;;
78053;SDS011;67726;45.636;11.752;2024-03-06T08:02:42;10.50;;;4.45;;
78053;SDS011;67726;45.636;11.752;2024-03-06T08:05:11;14.65;;;4.25;;
78053;SDS011;67726;45.636;11.752;2024-03-06T08:07:38;10.75;;;4.50;;
78053;SDS011;67726;45.636;11.752;2024-03-06T08:10:07;13.07;;;3.95;;
78053;SDS011;67726;45.636;11.752;2024-03-06T08:12:40;9.03;;;3.93;;
78053;SDS011;67726;45.636;11.752;2024-03-06T08:15:07;8.57;;;3.63;;
78053;SDS011;67726;45.636;11.752;2024-03-06T08:17:35;10.07;;;3.35;;
78053;SDS011;67726;45.636;11.752;2024-03-06T08:20:03;11.38;;;3.72;;
78053;SDS011;67726;45.636;11.752;2024-03-06T08:22:41;10.77;;;3.50;;
78053;SDS011;67726;45.636;11.752;2024-03-06T08:25:09;9.37;;;4.00;;
78053;SDS011;67726;45.636;11.752;2024-03-06T08:27:36;8.68;;;3.17;;
78053;SDS011;67726;45.636;11.752;2024-03-06T08:30:04;8.75;;;3.60;;
78053;SDS011;67726;45.636;11.752;2024-03-06T08:32:31;12.90;;;3.42;;
78053;SDS011;67726;45.636;11.752;2024-03-06T08:35:00;9.57;;;3.30;;
78053;SDS011;67726;45.636;11.752;2024-03-06T08:37:36;12.47;;;3.60;;
78053;SDS011;67726;45.636;11.752;2024-03-06T08:40:06;8.75;;;3.42;;
78053;SDS011;67726;45.636;11.752;2024-03-06T08:42:39;9.32;;;3.50;;
78053;SDS011;67726;45.636;11.752;2024-03-06T08:45:14;9.25;;;3.90;;
78053;SDS011;67726;45.636;11.752;2024-03-06T08:47:45;9.65;;;3.53;;
78053;SDS011;67726;45.636;11.752;2024-03-06T08:50:12;10.07;;;3.53;;
78053;SDS011;67726;45.636;11.752;2024-03-06T08:52:38;9.05;;;3.25;;
78053;SDS011;67726;45.636;11.752;2024-03-06T08:55:04;10.48;;;3.10;;
78053;SDS011;67726;45.636;11.752;2024-03-06T08:57:33;11.80;;;2.70;;
78053;SDS011;67726;45.636;11.752;2024-03-06T09:00:03;11.57;;;2.90;;
78053;SDS011;67726;45.636;11.752;2024-03-06T09:02:29;8.67;;;2.77;;
78053;SDS011;67726;45.636;11.752;2024-03-06T09:04:55;9.25;;;3.10;;
78053;SDS011;67726;45.636;11.752;2024-03-06T09:07:21;6.35;;;3.17;;
78053;SDS011;67726;45.636;11.752;2024-03-06T09:09:50;6.78;;;2.75;;
78053;SDS011;67726;45.636;11.752;2024-03-06T09:12:17;9.63;;;2.87;;
78053;SDS011;67726;45.636;11.752;2024-03-06T09:14:43;6.10;;;2.80;;
78053;SDS011;67726;45.636;11.752;2024-03-06T09:17:10;9.30;;;3.13;;
78053;SDS011;67726;45.636;11.752;2024-03-06T09:19:39;7.57;;;3.20;;
78053;SDS011;67726;45.636;11.752;2024-03-06T09:22:05;7.38;;;3.10;;
78053;SDS011;67726;45.636;11.752;2024-03-06T09:24:32;6.90;;;2.93;;
78053;SDS011;67726;45.636;11.752;2024-03-06T09:26:58;9.55;;;3.38;;
78053;SDS011;67726;45.636;11.752;2024-03-06T09:29:23;7.53;;;3.53;;
78053;SDS011;67726;45.636;11.752;2024-03-06T09:31:49;12.30;;;3.53;;
78053;SDS011;67726;45.636;11.752;2024-03-06T09:34:15;7.97;;;3.53;;
78053;SDS011;67726;45.636;11.752;2024-03-06T09:36:44;8.82;;;3.72;;
78053;SDS011;67726;45.636;11.752;2024-03-06T09:39:12;7.50;;;2.88;;
78053;SDS011;67726;45.636;11.752;2024-03-06T09:41:40;9.33;;;3.03;;
78053;SDS011;67726;45.636;11.752;2024-03-06T09:44:06;12.18;;;3.72;;
78053;SDS011;67726;45.636;11.752;2024-03-06T09:46:32;9.27;;;3.30;;
78053;SDS011;67726;45.636;11.752;2024-03-06T09:48:59;10.13;;;3.13;;
78053;SDS011;67726;45.636;11.752;2024-03-06T09:51:26;11.95;;;3.88;;
78053;SDS011;67726;45.636;11.752;2024-03-06T09:53:52;12.30;;;3.30;;
78053;SDS011;67726;45.636;11.752;2024-03-06T09:56:19;9.40;;;3.58;;
78053;SDS011;67726;45.636;11.752;2024-03-06T09:58:45;10.63;;;3.88;;
78053;SDS011;67726;45.636;11.752;2024-03-06T10:01:11;9.60;;;4.00;;
78053;SDS011;67726;45.636;11.752;2024-03-06T10:03:39;7.97;;;3.83;;
78053;SDS011;67726;45.636;11.752;2024-03-06T10:06:06;9.82;;;4.38;;
78053;SDS011;67726;45.636;11.752;2024-03-06T10:08:32;13.93;;;4.85;;
78053;SDS011;67726;45.636;11.752;2024-03-06T10:10:59;10.32;;;4.35;;
78053;SDS011;67726;45.636;11.752;2024-03-06T10:13:26;10.60;;;4.28;;
78053;SDS011;67726;45.636;11.752;2024-03-06T10:15:58;10.13;;;4.30;;
78053;SDS011;67726;45.636;11.752;2024-03-06T10:18:29;10.13;;;4.78;;
78053;SDS011;67726;45.636;11.752;2024-03-06T10:20:56;9.57;;;4.65;;
78053;SDS011;67726;45.636;11.752;2024-03-06T10:23:22;11.23;;;4.72;;
78053;SDS011;67726;45.636;11.752;2024-03-06T10:25:49;9.88;;;4.97;;
78053;SDS011;67726;45.636;11.752;2024-03-06T10:28:17;13.13;;;4.83;;
78053;SDS011;67726;45.636;11.752;2024-03-06T10:30:44;12.63;;;5.25;;
78053;SDS011;67726;45.636;11.752;2024-03-06T10:33:14;11.02;;;4.78;;
78053;SDS011;67726;45.636;11.752;2024-03-06T10:35:41;12.02;;;5.22;;
78053;SDS011;67726;45.636;11.752;2024-03-06T10:38:08;13.48;;;5.20;;
78053;SDS011;67726;45.636;11.752;2024-03-06T10:40:36;11.50;;;5.20;;
78053;SDS011;67726;45.636;11.752;2024-03-06T10:43:04;13.35;;;5.75;;
78053;SDS011;67726;45.636;11.752;2024-03-06T10:45:41;10.85;;;5.05;;
78053;SDS011;67726;45.636;11.752;2024-03-06T10:48:16;10.02;;;4.88;;
78053;SDS011;67726;45.636;11.752;2024-03-06T10:50:43;11.30;;;5.05;;
78053;SDS011;67726;45.636;11.752;2024-03-06T10:53:11;12.53;;;4.90;;
78053;SDS011;67726;45.636;11.752;2024-03-06T10:55:42;9.40;;;5.30;;
78053;SDS011;67726;45.636;11.752;2024-03-06T10:58:11;9.85;;;4.65;;
78053;SDS011;67726;45.636;11.752;2024-03-06T11:00:38;10.38;;;4.50;;
78053;SDS011;67726;45.636;11.752;2024-03-06T11:03:08;11.25;;;4.32;;
78053;SDS011;67726;45.636;11.752;2024-03-06T11:05:46;11.17;;;4.03;;
78053;SDS011;67726;45.636;11.752;2024-03-06T11:08:13;11.05;;;4.35;;
78053;SDS011;67726;45.636;11.752;2024-03-06T11:10:40;8.88;;;3.78;;
78053;SDS011;67726;45.636;11.752;2024-03-06T11:15:45;16.15;;;4.32;;
78053;SDS011;67726;45.636;11.752;2024-03-06T11:21:44;8.65;;;3.90;;
78053;SDS011;67726;45.636;11.752;2024-03-06T11:27:00;8.82;;;3.97;;
78053;SDS011;67726;45.636;11.752;2024-03-06T11:29:27;8.38;;;3.78;;
78053;SDS011;67726;45.636;11.752;2024-03-06T11:32:04;11.47;;;4.13;;
78053;SDS011;67726;45.636;11.752;2024-03-06T11:34:32;7.78;;;3.10;;
78053;SDS011;67726;45.636;11.752;2024-03-06T11:37:05;11.10;;;3.42;;
78053;SDS011;67726;45.636;11.752;2024-03-06T11:39:34;8.50;;;3.70;;
78053;SDS011;67726;45.636;11.752;2024-03-06T11:42:01;9.60;;;3.50;;
78053;SDS011;67726;45.636;11.752;2024-03-06T11:44:31;9.53;;;3.37;;
78053;SDS011;67726;45.636;11.752;2024-03-06T11:47:04;7.95;;;3.22;;
78053;SDS011;67726;45.636;11.752;2024-03-06T11:49:33;8.57;;;3.25;;
78053;SDS011;67726;45.636;11.752;2024-03-06T11:52:04;9.07;;;3.15;;
78053;SDS011;67726;45.636;11.752;2024-03-06T11:54:33;7.90;;;3.40;;
78053;SDS011;67726;45.636;11.752;2024-03-06T11:57:00;6.13;;;2.97;;
78053;SDS011;67726;45.636;11.752;2024-03-06T11:59:30;8.32;;;3.22;;
78053;SDS011;67726;45.636;11.752;2024-03-06T12:02:00;11.30;;;3.38;;
78053;SDS011;67726;45.636;11.752;2024-03-06T12:04:27;7.47;;;2.95;;
78053;SDS011;67726;45.636;11.752;2024-03-06T12:06:56;9.82;;;3.75;;
78053;SDS011;67726;45.636;11.752;2024-03-06T12:09:30;6.40;;;3.10;;
78053;SDS011;67726;45.636;11.752;2024-03-06T12:11:55;9.80;;;3.33;;
78053;SDS011;67726;45.636;11.752;2024-03-06T12:14:24;7.43;;;3.00;;
78053;SDS011;67726;45.636;11.752;2024-03-06T12:17:00;9.50;;;3.08;;
78053;SDS011;67726;45.636;11.752;2024-03-06T12:19:33;6.67;;;3.40;;
78053;SDS011;67726;45.636;11.752;2024-03-06T12:22:00;10.77;;;3.25;;
78053;SDS011;67726;45.636;11.752;2024-03-06T12:24:29;7.70;;;3.47;;
78053;SDS011;67726;45.636;11.752;2024-03-06T12:27:02;6.85;;;3.20;;
78053;SDS011;67726;45.636;11.752;2024-03-06T12:29:29;8.25;;;3.00;;
78053;SDS011;67726;45.636;11.752;2024-03-06T12:31:57;7.03;;;3.00;;
78053;SDS011;67726;45.636;11.752;2024-03-06T12:34:23;9.43;;;3.50;;
78053;SDS011;67726;45.636;11.752;2024-03-06T12:36:49;9.43;;;2.85;;
78053;SDS011;67726;45.636;11.752;2024-03-06T12:39:15;8.93;;;3.57;;
78053;SDS011;67726;45.636;11.752;2024-03-06T12:41:49;8.55;;;3.40;;
78053;SDS011;67726;45.636;11.752;2024-03-06T12:44:15;7.68;;;3.40;;
78053;SDS011;67726;45.636;11.752;2024-03-06T12:46:41;7.53;;;3.60;;
78053;SDS011;67726;45.636;11.752;2024-03-06T12:49:07;9.57;;;4.03;;
78053;SDS011;67726;45.636;11.752;2024-03-06T12:51:33;9.70;;;4.20;;
78053;SDS011;67726;45.636;11.752;2024-03-06T12:54:00;7.53;;;3.80;;
78053;SDS011;67726;45.636;11.752;2024-03-06T12:56:26;10.23;;;4.47;;
78053;SDS011;67726;45.636;11.752;2024-03-06T12:58:52;8.55;;;4.05;;
78053;SDS011;67726;45.636;11.752;2024-03-06T13:01:17;7.83;;;4.50;;
78053;SDS011;67726;45.636;11.752;2024-03-06T13:03:43;8.20;;;3.65;;
78053;SDS011;67726;45.636;11.752;2024-03-06T13:06:09;12.23;;;4.87;;
78053;SDS011;67726;45.636;11.752;2024-03-06T13:08:35;8.50;;;4.50;;
78053;SDS011;67726;45.636;11.752;2024-03-06T13:11:01;8.18;;;4.30;;
78053;SDS011;67726;45.636;11.752;2024-03-06T13:13:27;11.52;;;5.07;;
78053;SDS011;67726;45.636;11.752;2024-03-06T13:15:57;8.98;;;4.40;;
78053;SDS011;67726;45.636;11.752;2024-03-06T13:18:23;10.33;;;4.50;;
78053;SDS011;67726;45.636;11.752;2024-03-06T13:20:50;10.65;;;4.00;;
78053;SDS011;67726;45.636;11.752;2024-03-06T13:23:16;8.60;;;3.83;;
78053;SDS011;67726;45.636;11.752;2024-03-06T13:25:42;10.13;;;4.13;;
78053;SDS011;67726;45.636;11.752;2024-03-06T13:28:08;10.27;;;3.85;;
78053;SDS011;67726;45.636;11.752;2024-03-06T13:30:34;8.13;;;3.90;;
78053;SDS011;67726;45.636;11.752;2024-03-06T13:33:00;8.73;;;3.90;;
78053;SDS011;67726;45.636;11.752;2024-03-06T13:35:26;9.50;;;3.80;;
78053;SDS011;67726;45.636;11.752;2024-03-06T13:37:51;9.07;;;3.80;;
78053;SDS011;67726;45.636;11.752;2024-03-06T13:40:18;6.97;;;3.60;;
78053;SDS011;67726;45.636;11.752;2024-03-06T13:42:44;9.70;;;3.67;;
78053;SDS011;67726;45.636;11.752;2024-03-06T13:45:11;10.23;;;3.88;;
78053;SDS011;67726;45.636;11.752;2024-03-06T13:47:39;14.53;;;3.73;;
78053;SDS011;67726;45.636;11.752;2024-03-06T13:50:07;12.77;;;3.78;;
78053;SDS011;67726;45.636;11.752;2024-03-06T13:52:34;11.95;;;3.47;;
78053;SDS011;67726;45.636;11.752;2024-03-06T13:54:59;8.10;;;3.50;;
78053;SDS011;67726;45.636;11.752;2024-03-06T13:57:30;7.88;;;3.85;;
78053;SDS011;67726;45.636;11.752;2024-03-06T14:00:00;7.32;;;3.30;;
78053;SDS011;67726;45.636;11.752;2024-03-06T14:02:27;7.53;;;2.85;;
78053;SDS011;67726;45.636;11.752;2024-03-06T14:04:52;8.40;;;3.50;;
78053;SDS011;67726;45.636;11.752;2024-03-06T14:07:18;8.25;;;3.05;;
78053;SDS011;67726;45.636;11.752;2024-03-06T14:09:43;9.10;;;3.67;;
78053;SDS011;67726;45.636;11.752;2024-03-06T14:12:09;7.57;;;3.30;;
78053;SDS011;67726;45.636;11.752;2024-03-06T14:14:35;7.50;;;3.10;;
78053;SDS011;67726;45.636;11.752;2024-03-06T14:17:00;9.30;;;3.72;;
78053;SDS011;67726;45.636;11.752;2024-03-06T14:19:26;6.13;;;3.13;;
78053;SDS011;67726;45.636;11.752;2024-03-06T14:21:52;6.90;;;3.43;;
78053;SDS011;67726;45.636;11.752;2024-03-06T14:24:17;7.90;;;3.53;;
78053;SDS011;67726;45.636;11.752;2024-03-06T14:26:45;8.32;;;3.50;;
78053;SDS011;67726;45.636;11.752;2024-03-06T14:29:12;7.40;;;3.23;;
78053;SDS011;67726;45.636;11.752;2024-03-06T14:31:39;7.50;;;3.03;;
78053;SDS011;67726;45.636;11.752;2024-03-06T14:34:04;6.97;;;2.90;;
78053;SDS011;67726;45.636;11.752;2024-03-06T14:36:30;8.93;;;3.30;;